sensor_id;sensor_type;location;lat;lon;timestamp;pressure;altitude;pressure_sealevel;temperature;humidity
40838;BME280;29632;49.168;9.848;2023-02-26T00:00:12;96221.94;;;6.47;46.53
40838;BME280;29632;49.168;9.848;2023-02-26T00:02:43;96222.06;;;6.46;46.58
40838;BME280;29632;49.168;9.848;2023-02-26T00:05:14;96224.91;;;6.42;46.72
40838;BME280;29632;49.168;9.848;2023-02-26T00:07:41;96216.59;;;6.39;46.44
40838;BME280;29632;49.168;9.848;2023-02-26T00:10:08;96225.16;;;6.39;46.71
40838;BME280;29632;49.168;9.848;2023-02-26T00:12:35;96223.66;;;6.37;46.36
40838;BME280;29632;49.168;9.848;2023-02-26T00:15:02;96222.84;;;6.36;46.18
40838;BME280;29632;49.168;9.848;2023-02-26T00:19:57;96225.44;;;6.36;46.85
40838;BME280;29632;49.168;9.848;2023-02-26T00:22:23;96236.59;;;6.37;46.67
40838;BME280;29632;49.168;9.848;2023-02-26T00:24:48;96231.44;;;6.37;46.03
40838;BME280;29632;49.168;9.848;2023-02-26T00:27:14;96227.91;;;6.38;46.19
40838;BME280;29632;49.168;9.848;2023-02-26T00:29:40;96233.19;;;6.36;46.42
40838;BME280;29632;49.168;9.848;2023-02-26T00:32:06;96230.88;;;6.33;46.05
40838;BME280;29632;49.168;9.848;2023-02-26T00:34:32;96230.31;;;6.30;46.36
40838;BME280;29632;49.168;9.848;2023-02-26T00:37:13;96235.75;;;6.27;46.01
40838;BME280;29632;49.168;9.848;2023-02-26T00:39:50;96236.00;;;6.23;46.37
40838;BME280;29632;49.168;9.848;2023-02-26T00:42:17;96237.91;;;6.21;46.47
40838;BME280;29632;49.168;9.848;2023-02-26T00:44:43;96236.41;;;6.19;46.44
40838;BME280;29632;49.168;9.848;2023-02-26T00:55:19;96245.34;;;6.15;46.12
40838;BME280;29632;49.168;9.848;2023-02-26T00:57:45;96241.25;;;6.12;46.55
40838;BME280;29632;49.168;9.848;2023-02-26T01:00:12;96245.75;;;6.10;45.99
40838;BME280;29632;49.168;9.848;2023-02-26T01:02:38;96245.06;;;6.08;46.27
40838;BME280;29632;49.168;9.848;2023-02-26T01:05:05;96243.53;;;6.05;46.44
40838;BME280;29632;49.168;9.848;2023-02-26T01:10:08;96242.84;;;6.03;46.47
40838;BME280;29632;49.168;9.848;2023-02-26T01:12:35;96249.81;;;6.03;45.76
40838;BME280;29632;49.168;9.848;2023-02-26T01:15:02;96251.44;;;6.04;46.15
40838;BME280;29632;49.168;9.848;2023-02-26T01:20:10;96245.00;;;5.98;46.25
40838;BME280;29632;49.168;9.848;2023-02-26T01:22:47;96244.19;;;5.98;46.41
40838;BME280;29632;49.168;9.848;2023-02-26T01:27:48;96241.63;;;5.98;46.05
40838;BME280;29632;49.168;9.848;2023-02-26T01:30:14;96245.13;;;5.97;46.06
40838;BME280;29632;49.168;9.848;2023-02-26T01:46:17;96245.88;;;5.88;46.42
40838;BME280;29632;49.168;9.848;2023-02-26T01:48:56;96251.16;;;5.86;46.17
40838;BME280;29632;49.168;9.848;2023-02-26T01:51:49;96250.38;;;5.85;46.27
40838;BME280;29632;49.168;9.848;2023-02-26T01:54:17;96251.41;;;5.83;46.29
40838;BME280;29632;49.168;9.848;2023-02-26T01:56:44;96253.31;;;5.81;46.08
40838;BME280;29632;49.168;9.848;2023-02-26T01:59:14;96257.69;;;5.80;46.03
40838;BME280;29632;49.168;9.848;2023-02-26T02:01:40;96257.09;;;5.77;46.23
40838;BME280;29632;49.168;9.848;2023-02-26T02:04:10;96255.59;;;5.74;45.95
40838;BME280;29632;49.168;9.848;2023-02-26T02:06:37;96254.91;;;5.72;45.81
40838;BME280;29632;49.168;9.848;2023-02-26T02:09:05;96252.44;;;5.71;46.05
40838;BME280;29632;49.168;9.848;2023-02-26T02:11:31;96259.50;;;5.68;46.22
40838;BME280;29632;49.168;9.848;2023-02-26T02:17:14;96252.25;;;5.62;46.24
40838;BME280;29632;49.168;9.848;2023-02-26T02:20:10;96256.72;;;5.60;46.11
40838;BME280;29632;49.168;9.848;2023-02-26T02:23:01;96261.19;;;5.58;46.11
40838;BME280;29632;49.168;9.848;2023-02-26T02:25:39;96267.16;;;5.59;46.01
40838;BME280;29632;49.168;9.848;2023-02-26T02:31:16;96270.84;;;5.56;45.82
40838;BME280;29632;49.168;9.848;2023-02-26T02:33:54;96274.34;;;5.55;45.96
40838;BME280;29632;49.168;9.848;2023-02-26T02:36:50;96279.53;;;5.55;45.96
40838;BME280;29632;49.168;9.848;2023-02-26T02:41:58;96292.69;;;5.52;46.05
40838;BME280;29632;49.168;9.848;2023-02-26T02:44:26;96279.06;;;5.50;45.90
40838;BME280;29632;49.168;9.848;2023-02-26T02:46:54;96284.34;;;5.48;46.08
40838;BME280;29632;49.168;9.848;2023-02-26T02:49:30;96282.75;;;5.47;46.15
40838;BME280;29632;49.168;9.848;2023-02-26T02:52:24;96279.47;;;5.45;45.84
40838;BME280;29632;49.168;9.848;2023-02-26T02:55:27;96273.56;;;5.43;46.33
40838;BME280;29632;49.168;9.848;2023-02-26T02:57:49;96284.88;;;5.42;46.09
40838;BME280;29632;49.168;9.848;2023-02-26T03:00:17;96280.63;;;5.41;46.11
40838;BME280;29632;49.168;9.848;2023-02-26T03:03:02;96276.56;;;5.39;46.02
40838;BME280;29632;49.168;9.848;2023-02-26T03:05:31;96285.34;;;5.36;45.76
40838;BME280;29632;49.168;9.848;2023-02-26T03:08:00;96289.00;;;5.34;46.42
40838;BME280;29632;49.168;9.848;2023-02-26T03:10:27;96289.00;;;5.34;46.08
40838;BME280;29632;49.168;9.848;2023-02-26T03:12:53;96283.97;;;5.32;45.84
40838;BME280;29632;49.168;9.848;2023-02-26T03:15:30;96282.59;;;5.28;45.99
40838;BME280;29632;49.168;9.848;2023-02-26T03:21:25;96289.03;;;5.22;46.24
40838;BME280;29632;49.168;9.848;2023-02-26T03:26:41;96292.81;;;5.18;46.25
40838;BME280;29632;49.168;9.848;2023-02-26T03:31:56;96290.75;;;5.12;46.18
40838;BME280;29632;49.168;9.848;2023-02-26T03:34:25;96297.75;;;5.10;45.93
40838;BME280;29632;49.168;9.848;2023-02-26T03:37:22;96299.66;;;5.08;45.99
40838;BME280;29632;49.168;9.848;2023-02-26T03:39:57;96295.56;;;5.05;46.52
40838;BME280;29632;49.168;9.848;2023-02-26T03:42:30;96298.50;;;5.01;46.40
40838;BME280;29632;49.168;9.848;2023-02-26T03:45:00;96302.28;;;4.97;46.08
40838;BME280;29632;49.168;9.848;2023-02-26T03:47:27;96304.97;;;4.95;46.22
40838;BME280;29632;49.168;9.848;2023-02-26T03:50:06;96310.25;;;4.94;46.21
40838;BME280;29632;49.168;9.848;2023-02-26T03:52:34;96314.84;;;4.90;46.42
40838;BME280;29632;49.168;9.848;2023-02-26T03:55:14;96323.38;;;4.90;46.10
40838;BME280;29632;49.168;9.848;2023-02-26T03:57:41;96318.34;;;4.89;46.34
40838;BME280;29632;49.168;9.848;2023-02-26T04:00:08;96325.28;;;4.88;46.01
40838;BME280;29632;49.168;9.848;2023-02-26T04:02:45;96326.34;;;4.86;46.20
40838;BME280;29632;49.168;9.848;2023-02-26T04:05:15;96325.50;;;4.85;45.96
40838;BME280;29632;49.168;9.848;2023-02-26T04:07:42;96326.34;;;4.86;45.95
40838;BME280;29632;49.168;9.848;2023-02-26T04:10:09;96330.66;;;4.85;46.33
40838;BME280;29632;49.168;9.848;2023-02-26T04:12:35;96335.94;;;4.84;46.46
40838;BME280;29632;49.168;9.848;2023-02-26T04:15:01;96336.09;;;4.82;46.23
40838;BME280;29632;49.168;9.848;2023-02-26T04:17:27;96336.91;;;4.83;46.04
40838;BME280;29632;49.168;9.848;2023-02-26T04:19:52;96338.66;;;4.82;46.47
40838;BME280;29632;49.168;9.848;2023-02-26T04:22:18;96338.66;;;4.82;46.05
40838;BME280;29632;49.168;9.848;2023-02-26T04:24:43;96348.16;;;4.82;46.15
40838;BME280;29632;49.168;9.848;2023-02-26T04:27:09;96341.47;;;4.79;46.30
40838;BME280;29632;49.168;9.848;2023-02-26T04:29:35;96344.06;;;4.79;46.25
40838;BME280;29632;49.168;9.848;2023-02-26T04:32:01;96350.16;;;4.78;46.02
40838;BME280;29632;49.168;9.848;2023-02-26T04:34:27;96345.22;;;4.75;46.44
40838;BME280;29632;49.168;9.848;2023-02-26T04:36:53;96352.94;;;4.75;46.00
40838;BME280;29632;49.168;9.848;2023-02-26T04:39:18;96359.88;;;4.75;46.04
40838;BME280;29632;49.168;9.848;2023-02-26T04:41:44;96364.22;;;4.74;46.17
40838;BME280;29632;49.168;9.848;2023-02-26T04:44:10;96364.34;;;4.72;46.08
40838;BME280;29632;49.168;9.848;2023-02-26T04:46:35;96371.28;;;4.72;46.10
40838;BME280;29632;49.168;9.848;2023-02-26T04:49:01;96371.38;;;4.70;45.85
40838;BME280;29632;49.168;9.848;2023-02-26T04:51:27;96375.69;;;4.70;45.91
40838;BME280;29632;49.168;9.848;2023-02-26T04:53:52;96380.06;;;4.69;46.27
40838;BME280;29632;49.168;9.848;2023-02-26T04:56:18;96377.59;;;4.68;46.19
40838;BME280;29632;49.168;9.848;2023-02-26T04:58:44;96380.28;;;4.66;45.99
40838;BME280;29632;49.168;9.848;2023-02-26T05:01:09;96382.84;;;4.66;46.27
40838;BME280;29632;49.168;9.848;2023-02-26T05:03:35;96389.91;;;4.64;46.41
40838;BME280;29632;49.168;9.848;2023-02-26T05:06:01;96385.81;;;4.62;46.11
40838;BME280;29632;49.168;9.848;2023-02-26T05:08:26;96390.13;;;4.61;46.36
40838;BME280;29632;49.168;9.848;2023-02-26T05:10:52;96395.28;;;4.61;45.97
40838;BME280;29632;49.168;9.848;2023-02-26T05:13:18;96396.25;;;4.60;46.10
40838;BME280;29632;49.168;9.848;2023-02-26T05:15:44;96391.19;;;4.59;46.06
40838;BME280;29632;49.168;9.848;2023-02-26T05:18:09;96398.13;;;4.58;46.37
40838;BME280;29632;49.168;9.848;2023-02-26T05:20:35;96399.16;;;4.56;46.20
40838;BME280;29632;49.168;9.848;2023-02-26T05:23:01;96395.06;;;4.53;46.01
40838;BME280;29632;49.168;9.848;2023-02-26T05:25:26;96398.44;;;4.53;45.90
40838;BME280;29632;49.168;9.848;2023-02-26T05:27:52;96402.81;;;4.53;46.39
40838;BME280;29632;49.168;9.848;2023-02-26T05:30:18;96406.19;;;4.53;45.91
40838;BME280;29632;49.168;9.848;2023-02-26T05:32:44;96403.72;;;4.52;46.11
40838;BME280;29632;49.168;9.848;2023-02-26T05:35:10;96409.69;;;4.52;46.39
40838;BME280;29632;49.168;9.848;2023-02-26T05:37:36;96406.31;;;4.52;46.52
40838;BME280;29632;49.168;9.848;2023-02-26T05:40:04;96415.00;;;4.51;46.22
40838;BME280;29632;49.168;9.848;2023-02-26T05:42:30;96418.50;;;4.50;46.33
40838;BME280;29632;49.168;9.848;2023-02-26T05:44:55;96421.88;;;4.50;45.95
40838;BME280;29632;49.168;9.848;2023-02-26T05:47:22;96422.84;;;4.49;46.06
40838;BME280;29632;49.168;9.848;2023-02-26T05:49:48;96422.84;;;4.49;45.90
40838;BME280;29632;49.168;9.848;2023-02-26T05:52:14;96429.75;;;4.49;46.02
40838;BME280;29632;49.168;9.848;2023-02-26T05:54:40;96424.72;;;4.47;46.14
40838;BME280;29632;49.168;9.848;2023-02-26T05:57:05;96435.03;;;4.47;46.11
40838;BME280;29632;49.168;9.848;2023-02-26T05:59:31;96431.50;;;4.48;45.83
40838;BME280;29632;49.168;9.848;2023-02-26T06:01:57;96436.66;;;4.48;46.08
40838;BME280;29632;49.168;9.848;2023-02-26T06:04:22;96441.72;;;4.50;46.09
40838;BME280;29632;49.168;9.848;2023-02-26T06:06:48;96446.88;;;4.50;45.87
40838;BME280;29632;49.168;9.848;2023-02-26T06:09:14;96447.78;;;4.49;45.86
40838;BME280;29632;49.168;9.848;2023-02-26T06:11:39;96454.59;;;4.50;45.84
40838;BME280;29632;49.168;9.848;2023-02-26T06:14:05;96453.69;;;4.51;45.68
40838;BME280;29632;49.168;9.848;2023-02-26T06:16:31;96454.50;;;4.51;45.94
40838;BME280;29632;49.168;9.848;2023-02-26T06:18:57;96456.13;;;4.52;45.92
40838;BME280;29632;49.168;9.848;2023-02-26T06:21:23;96458.59;;;4.54;46.10
40838;BME280;29632;49.168;9.848;2023-02-26T06:23:48;96464.47;;;4.56;45.89
40838;BME280;29632;49.168;9.848;2023-02-26T06:26:14;96462.81;;;4.55;46.04
40838;BME280;29632;49.168;9.848;2023-02-26T06:28:40;96473.94;;;4.56;45.87
40838;BME280;29632;49.168;9.848;2023-02-26T06:31:06;96473.94;;;4.56;45.46
40838;BME280;29632;49.168;9.848;2023-02-26T06:33:31;96471.38;;;4.56;45.90
40838;BME280;29632;49.168;9.848;2023-02-26T06:35:57;96471.25;;;4.57;46.03
40838;BME280;29632;49.168;9.848;2023-02-26T06:38:25;96478.06;;;4.58;45.85
40838;BME280;29632;49.168;9.848;2023-02-26T06:40:50;96484.06;;;4.59;45.70
40838;BME280;29632;49.168;9.848;2023-02-26T06:43:16;96485.72;;;4.60;45.98
40838;BME280;29632;49.168;9.848;2023-02-26T06:45:41;96482.19;;;4.61;45.83
40838;BME280;29632;49.168;9.848;2023-02-26T06:48:07;96486.31;;;4.63;45.56
40838;BME280;29632;49.168;9.848;2023-02-26T06:50:33;96494.75;;;4.65;45.73
40838;BME280;29632;49.168;9.848;2023-02-26T06:52:58;96491.22;;;4.66;45.44
40838;BME280;29632;49.168;9.848;2023-02-26T06:55:24;96502.25;;;4.68;45.83
40838;BME280;29632;49.168;9.848;2023-02-26T06:57:55;96513.28;;;4.70;45.90
40838;BME280;29632;49.168;9.848;2023-02-26T07:00:22;96509.84;;;4.70;45.62
40838;BME280;29632;49.168;9.848;2023-02-26T07:02:49;96514.91;;;4.71;45.57
40838;BME280;29632;49.168;9.848;2023-02-26T07:05:14;96518.09;;;4.75;45.83
40838;BME280;29632;49.168;9.848;2023-02-26T07:07:40;96522.31;;;4.76;45.51
40838;BME280;29632;49.168;9.848;2023-02-26T07:10:06;96529.13;;;4.77;45.46
40838;BME280;29632;49.168;9.848;2023-02-26T07:12:32;96529.94;;;4.78;45.87
40838;BME280;29632;49.168;9.848;2023-02-26T07:14:58;96537.47;;;4.81;45.34
40838;BME280;29632;49.168;9.848;2023-02-26T07:17:23;96540.63;;;4.84;45.90
40838;BME280;29632;49.168;9.848;2023-02-26T07:19:50;96547.31;;;4.87;45.55
40838;BME280;29632;49.168;9.848;2023-02-26T07:22:18;96535.97;;;4.89;45.41
40838;BME280;29632;49.168;9.848;2023-02-26T07:24:44;96547.81;;;4.92;45.56
40838;BME280;29632;49.168;9.848;2023-02-26T07:27:10;96546.75;;;4.95;45.47
40838;BME280;29632;49.168;9.848;2023-02-26T07:29:37;96551.78;;;4.96;45.66
40838;BME280;29632;49.168;9.848;2023-02-26T07:32:03;96550.63;;;5.00;45.53
40838;BME280;29632;49.168;9.848;2023-02-26T07:34:28;96552.25;;;5.01;45.61
40838;BME280;29632;49.168;9.848;2023-02-26T07:36:54;96551.13;;;5.05;45.66
40838;BME280;29632;49.168;9.848;2023-02-26T07:39:20;96556.50;;;5.14;45.70
40838;BME280;29632;49.168;9.848;2023-02-26T07:41:45;96550.78;;;5.21;45.47
40838;BME280;29632;49.168;9.848;2023-02-26T07:44:11;96566.75;;;5.26;45.55
40838;BME280;29632;49.168;9.848;2023-02-26T07:46:37;96573.22;;;5.32;45.37
40838;BME280;29632;49.168;9.848;2023-02-26T07:49:02;96573.44;;;5.40;45.65
40838;BME280;29632;49.168;9.848;2023-02-26T07:51:28;96571.22;;;5.47;45.44
40838;BME280;29632;49.168;9.848;2023-02-26T07:53:54;96584.72;;;5.51;45.36
40838;BME280;29632;49.168;9.848;2023-02-26T07:56:19;96577.31;;;5.57;45.63
40838;BME280;29632;49.168;9.848;2023-02-26T07:58:45;96574.97;;;5.65;45.31
40838;BME280;29632;49.168;9.848;2023-02-26T08:03:38;96574.97;;;5.77;45.48
40838;BME280;29632;49.168;9.848;2023-02-26T08:06:05;96582.13;;;5.84;45.39
40838;BME280;29632;49.168;9.848;2023-02-26T08:08:30;96577.31;;;5.91;45.09
40838;BME280;29632;49.168;9.848;2023-02-26T08:10:58;96571.91;;;5.94;45.06
40838;BME280;29632;49.168;9.848;2023-02-26T08:13:24;96581.06;;;5.98;45.59
40838;BME280;29632;49.168;9.848;2023-02-26T08:15:50;96573.78;;;6.03;45.12
40838;BME280;29632;49.168;9.848;2023-02-26T08:18:15;96582.81;;;6.09;45.04
40838;BME280;29632;49.168;9.848;2023-02-26T08:20:41;96599.59;;;6.15;45.36
40838;BME280;29632;49.168;9.848;2023-02-26T08:23:07;96601.84;;;6.19;44.91
40838;BME280;29632;49.168;9.848;2023-02-26T08:25:33;96599.84;;;6.23;45.00
40838;BME280;29632;49.168;9.848;2023-02-26T08:27:58;96601.38;;;6.26;45.44
40838;BME280;29632;49.168;9.848;2023-02-26T08:30:25;96596.50;;;6.32;44.86
40838;BME280;29632;49.168;9.848;2023-02-26T08:32:51;96600.97;;;6.41;45.27
40838;BME280;29632;49.168;9.848;2023-02-26T08:35:17;96597.06;;;6.47;45.11
40838;BME280;29632;49.168;9.848;2023-02-26T08:37:42;96605.03;;;6.55;44.95
40838;BME280;29632;49.168;9.848;2023-02-26T08:40:09;96608.09;;;6.60;45.13
40838;BME280;29632;49.168;9.848;2023-02-26T08:42:35;96611.38;;;6.63;45.03
40838;BME280;29632;49.168;9.848;2023-02-26T08:45:00;96605.22;;;6.64;44.94
40838;BME280;29632;49.168;9.848;2023-02-26T08:47:26;96610.41;;;6.64;45.14
40838;BME280;29632;49.168;9.848;2023-02-26T08:49:52;96619.00;;;6.64;45.47
40838;BME280;29632;49.168;9.848;2023-02-26T08:52:18;96619.00;;;6.64;45.65
40838;BME280;29632;49.168;9.848;2023-02-26T08:54:44;96620.06;;;6.61;44.76
40838;BME280;29632;49.168;9.848;2023-02-26T08:57:10;96631.63;;;6.57;45.05
40838;BME280;29632;49.168;9.848;2023-02-26T08:59:36;96629.25;;;6.54;45.78
40838;BME280;29632;49.168;9.848;2023-02-26T09:02:02;96638.81;;;6.54;45.41
40838;BME280;29632;49.168;9.848;2023-02-26T09:04:27;96633.06;;;6.50;45.50
40838;BME280;29632;49.168;9.848;2023-02-26T09:06:53;96641.06;;;6.47;45.63
40838;BME280;29632;49.168;9.848;2023-02-26T09:09:19;96643.75;;;6.46;45.36
40838;BME280;29632;49.168;9.848;2023-02-26T09:11:45;96652.59;;;6.43;45.74
40838;BME280;29632;49.168;9.848;2023-02-26T09:14:11;96659.41;;;6.44;45.68
40838;BME280;29632;49.168;9.848;2023-02-26T09:16:37;96659.41;;;6.44;46.03
40838;BME280;29632;49.168;9.848;2023-02-26T09:19:04;96668.94;;;6.43;45.95
40838;BME280;29632;49.168;9.848;2023-02-26T09:21:30;96667.16;;;6.44;45.68
40838;BME280;29632;49.168;9.848;2023-02-26T09:23:55;96665.38;;;6.45;45.82
40838;BME280;29632;49.168;9.848;2023-02-26T09:26:21;96666.34;;;6.43;45.30
40838;BME280;29632;49.168;9.848;2023-02-26T09:28:47;96674.81;;;6.46;45.60
40838;BME280;29632;49.168;9.848;2023-02-26T09:31:12;96673.03;;;6.46;46.11
40838;BME280;29632;49.168;9.848;2023-02-26T09:33:38;96672.78;;;6.49;45.71
40838;BME280;29632;49.168;9.848;2023-02-26T09:36:04;96680.56;;;6.49;45.97
40838;BME280;29632;49.168;9.848;2023-02-26T09:38:30;96683.25;;;6.48;45.63
40838;BME280;29632;49.168;9.848;2023-02-26T09:54:52;96699.31;;;6.74;45.42
40838;BME280;29632;49.168;9.848;2023-02-26T09:57:35;96696.72;;;6.85;45.47
40838;BME280;29632;49.168;9.848;2023-02-26T10:06:02;96697.22;;;7.32;44.96
40838;BME280;29632;49.168;9.848;2023-02-26T10:08:36;96697.97;;;7.44;44.38
40838;BME280;29632;49.168;9.848;2023-02-26T10:11:07;96701.41;;;7.45;44.44
40838;BME280;29632;49.168;9.848;2023-02-26T10:13:41;96718.56;;;7.46;44.71
40838;BME280;29632;49.168;9.848;2023-02-26T10:16:11;96713.38;;;7.46;44.99
40838;BME280;29632;49.168;9.848;2023-02-26T10:18:42;96716.94;;;7.45;45.24
40838;BME280;29632;49.168;9.848;2023-02-26T10:21:21;96720.59;;;7.42;44.92
40838;BME280;29632;49.168;9.848;2023-02-26T10:23:50;96729.44;;;7.40;44.95
40838;BME280;29632;49.168;9.848;2023-02-26T10:26:23;96736.53;;;7.37;45.19
40838;BME280;29632;49.168;9.848;2023-02-26T10:29:09;96736.66;;;7.36;44.72
40838;BME280;29632;49.168;9.848;2023-02-26T10:32:05;96741.25;;;7.32;45.53
40838;BME280;29632;49.168;9.848;2023-02-26T10:35:08;96738.09;;;7.29;45.20
40838;BME280;29632;49.168;9.848;2023-02-26T10:37:56;96739.84;;;7.28;44.85
40838;BME280;29632;49.168;9.848;2023-02-26T10:40:38;96745.16;;;7.27;45.44
40838;BME280;29632;49.168;9.848;2023-02-26T10:52:15;96755.22;;;7.20;45.91
40838;BME280;29632;49.168;9.848;2023-02-26T10:57:34;96751.91;;;7.18;45.93
40838;BME280;29632;49.168;9.848;2023-02-26T11:00:02;96762.13;;;7.19;45.60
40838;BME280;29632;49.168;9.848;2023-02-26T11:05:02;96764.28;;;7.14;45.49
40838;BME280;29632;49.168;9.848;2023-02-26T11:07:29;96753.22;;;7.12;45.63
40838;BME280;29632;49.168;9.848;2023-02-26T11:09:55;96756.63;;;7.13;45.92
40838;BME280;29632;49.168;9.848;2023-02-26T11:12:21;96765.00;;;7.16;45.97
40838;BME280;29632;49.168;9.848;2023-02-26T11:14:48;96760.38;;;7.20;45.84
40838;BME280;29632;49.168;9.848;2023-02-26T11:17:23;96759.44;;;7.21;45.15
40838;BME280;29632;49.168;9.848;2023-02-26T11:20:02;96764.59;;;7.21;45.81
40838;BME280;29632;49.168;9.848;2023-02-26T11:22:33;96768.75;;;7.24;45.44
40838;BME280;29632;49.168;9.848;2023-02-26T11:25:00;96767.66;;;7.26;45.48
40838;BME280;29632;49.168;9.848;2023-02-26T11:27:34;96764.94;;;7.28;45.78
40838;BME280;29632;49.168;9.848;2023-02-26T11:30:05;96768.63;;;7.25;45.39
40838;BME280;29632;49.168;9.848;2023-02-26T11:32:34;96771.06;;;7.27;45.78
40838;BME280;29632;49.168;9.848;2023-02-26T11:35:00;96767.53;;;7.28;45.63
40838;BME280;29632;49.168;9.848;2023-02-26T11:37:30;96760.84;;;7.25;45.36
40838;BME280;29632;49.168;9.848;2023-02-26T11:40:04;96763.69;;;7.22;45.44
40838;BME280;29632;49.168;9.848;2023-02-26T11:42:37;96765.41;;;7.22;45.41
40838;BME280;29632;49.168;9.848;2023-02-26T11:45:05;96759.53;;;7.19;45.99
40838;BME280;29632;49.168;9.848;2023-02-26T11:47:31;96764.84;;;7.18;45.30
40838;BME280;29632;49.168;9.848;2023-02-26T11:50:04;96764.28;;;7.14;45.72
40838;BME280;29632;49.168;9.848;2023-02-26T11:52:40;96751.31;;;7.14;45.72
40838;BME280;29632;49.168;9.848;2023-02-26T11:55:21;96751.19;;;7.16;45.91
40838;BME280;29632;49.168;9.848;2023-02-26T11:57:51;96752.16;;;7.15;45.77
40838;BME280;29632;49.168;9.848;2023-02-26T12:02:45;96752.03;;;7.16;45.83
40838;BME280;29632;49.168;9.848;2023-02-26T12:05:13;96749.31;;;7.18;45.31
40838;BME280;29632;49.168;9.848;2023-02-26T12:07:40;96756.97;;;7.19;45.77
40838;BME280;29632;49.168;9.848;2023-02-26T12:10:23;96759.31;;;7.23;45.59
40838;BME280;29632;49.168;9.848;2023-02-26T12:13:03;96750.47;;;7.25;45.49
40838;BME280;29632;49.168;9.848;2023-02-26T12:15:45;96750.22;;;7.28;45.20
40838;BME280;29632;49.168;9.848;2023-02-26T12:23:38;96745.47;;;7.33;45.44
40838;BME280;29632;49.168;9.848;2023-02-26T12:26:32;96757.63;;;7.33;45.51
40838;BME280;29632;49.168;9.848;2023-02-26T12:35:24;96751.13;;;7.38;44.92
40838;BME280;29632;49.168;9.848;2023-02-26T12:38:20;96759.47;;;7.42;45.21
40838;BME280;29632;49.168;9.848;2023-02-26T12:40:59;96756.50;;;7.47;44.65
40838;BME280;29632;49.168;9.848;2023-02-26T13:00:21;96757.63;;;7.96;44.77
40838;BME280;29632;49.168;9.848;2023-02-26T13:03:03;96759.75;;;8.12;44.57
40838;BME280;29632;49.168;9.848;2023-02-26T13:11:20;96772.34;;;8.68;44.61
40838;BME280;29632;49.168;9.848;2023-02-26T13:16:43;96772.78;;;8.83;44.34
40838;BME280;29632;49.168;9.848;2023-02-26T13:21:45;96773.56;;;8.84;44.97
40838;BME280;29632;49.168;9.848;2023-02-26T13:27:16;96765.94;;;8.92;45.32
40838;BME280;29632;49.168;9.848;2023-02-26T13:30:37;96763.81;;;9.07;45.08
40838;BME280;29632;49.168;9.848;2023-02-26T13:32:37;96776.81;;;9.26;45.00
40838;BME280;29632;49.168;9.848;2023-02-26T13:35:08;96770.91;;;9.54;44.95
40838;BME280;29632;49.168;9.848;2023-02-26T13:37:41;96771.06;;;9.72;44.85
40838;BME280;29632;49.168;9.848;2023-02-26T13:40:24;96765.81;;;9.81;44.77
40838;BME280;29632;49.168;9.848;2023-02-26T13:45:49;96776.22;;;9.81;44.54
40838;BME280;29632;49.168;9.848;2023-02-26T13:48:35;96775.97;;;9.75;44.52
40838;BME280;29632;49.168;9.848;2023-02-26T13:53:59;96780.06;;;9.68;44.58
40838;BME280;29632;49.168;9.848;2023-02-26T14:02:29;96782.56;;;9.59;44.77
40838;BME280;29632;49.168;9.848;2023-02-26T14:04:58;96789.53;;;9.59;44.94
40838;BME280;29632;49.168;9.848;2023-02-26T14:10:17;96780.50;;;9.53;44.70
40838;BME280;29632;49.168;9.848;2023-02-26T14:13:06;96793.09;;;9.48;44.87
40838;BME280;29632;49.168;9.848;2023-02-26T14:23:57;96795.97;;;9.84;44.34
40838;BME280;29632;49.168;9.848;2023-02-26T14:26:24;96796.59;;;9.96;44.09
40838;BME280;29632;49.168;9.848;2023-02-26T14:29:19;96795.19;;;10.21;43.91
40838;BME280;29632;49.168;9.848;2023-02-26T14:34:56;96794.81;;;10.63;43.21
40838;BME280;29632;49.168;9.848;2023-02-26T14:37:24;96808.25;;;10.58;43.47
40838;BME280;29632;49.168;9.848;2023-02-26T14:40:19;96812.31;;;10.43;43.55
40838;BME280;29632;49.168;9.848;2023-02-26T14:42:54;96813.81;;;10.26;43.92
40838;BME280;29632;49.168;9.848;2023-02-26T14:47:53;96813.81;;;10.26;43.40
40838;BME280;29632;49.168;9.848;2023-02-26T14:50:23;96815.13;;;10.50;43.23
40838;BME280;29632;49.168;9.848;2023-02-26T14:55:43;96823.31;;;10.65;42.94
40838;BME280;29632;49.168;9.848;2023-02-26T15:01:12;96827.47;;;10.48;42.98
40838;BME280;29632;49.168;9.848;2023-02-26T15:06:43;96829.00;;;10.78;42.77
40838;BME280;29632;49.168;9.848;2023-02-26T15:25:38;96851.66;;;10.20;43.18
40838;BME280;29632;49.168;9.848;2023-02-26T15:28:06;96855.75;;;10.13;43.07
40838;BME280;29632;49.168;9.848;2023-02-26T15:30:35;96858.38;;;10.04;43.09
40838;BME280;29632;49.168;9.848;2023-02-26T15:33:10;96860.03;;;9.95;43.35
40838;BME280;29632;49.168;9.848;2023-02-26T15:35:37;96856.47;;;9.86;43.68
40838;BME280;29632;49.168;9.848;2023-02-26T15:38:03;96855.25;;;9.80;43.19
40838;BME280;29632;49.168;9.848;2023-02-26T15:40:33;96863.59;;;9.74;43.21
40838;BME280;29632;49.168;9.848;2023-02-26T15:43:00;96865.09;;;9.67;43.13
40838;BME280;29632;49.168;9.848;2023-02-26T15:48:01;96867.81;;;9.56;43.51
40838;BME280;29632;49.168;9.848;2023-02-26T15:50:32;96868.78;;;9.55;43.33
40838;BME280;29632;49.168;9.848;2023-02-26T15:53:00;96873.56;;;9.50;43.23
40838;BME280;29632;49.168;9.848;2023-02-26T15:55:30;96871.63;;;9.42;43.55
40838;BME280;29632;49.168;9.848;2023-02-26T15:57:57;96869.69;;;9.34;43.21
40838;BME280;29632;49.168;9.848;2023-02-26T16:00:23;96872.13;;;9.26;43.06
40838;BME280;29632;49.168;9.848;2023-02-26T16:02:55;96879.78;;;9.18;43.20
40838;BME280;29632;49.168;9.848;2023-02-26T16:05:25;96877.97;;;9.08;42.86
40838;BME280;29632;49.168;9.848;2023-02-26T16:07:50;96884.94;;;8.98;42.95
40838;BME280;29632;49.168;9.848;2023-02-26T16:10:27;96884.75;;;8.90;43.70
40838;BME280;29632;49.168;9.848;2023-02-26T16:12:57;96881.16;;;8.81;43.70
40838;BME280;29632;49.168;9.848;2023-02-26T16:15:35;96882.75;;;8.73;43.19
40838;BME280;29632;49.168;9.848;2023-02-26T16:18:06;96894.50;;;8.67;43.43
40838;BME280;29632;49.168;9.848;2023-02-26T16:20:44;96889.69;;;8.62;43.72
40838;BME280;29632;49.168;9.848;2023-02-26T16:23:13;96902.09;;;8.59;43.40
40838;BME280;29632;49.168;9.848;2023-02-26T16:25:58;96900.16;;;8.51;43.69
40838;BME280;29632;49.168;9.848;2023-02-26T16:28:30;96902.56;;;8.43;43.76
40838;BME280;29632;49.168;9.848;2023-02-26T16:30:59;96902.19;;;8.36;43.58